• Join FlightAware (Why Join?)
  • Login
  • US Flag 
10:50PM EST


 

Airport Tracker/Info


-or-


 

Live Flight TrackerFlight Track Log ✈ EJA930 ✈ 22-Jun-2013 ✈ KBUR - KLAS

Flight Track Log - Related Links

Times and Time Zones

All times are in EDT time to prevent confusion due to time zone crossing. See the EJA930 flight status page for this flight to view local times or setup timezone preferences in your user account.

Time Position Orientation Groundspeed Altitude Reporting Facility
EDT Latitude Longitude Course Direction KTS MPH feet Rate Location/Type
04:04PM 34.1678 -118.3722 292° West 203 234 3,100  Level Los Angeles Center
04:05PM 34.1861 -118.4258 292° West 249 287 5,000 2,419 Climbing Los Angeles Center
04:06PM 34.2533 -118.4067 13° North 247 284 8,100 2,565 Climbing Los Angeles Center
04:07PM 34.3214 -118.3808 17° North 254 292 10,300 1,694 Climbing Los Angeles Center
04:08PM 34.4086 -118.3514 16° North 319 367 11,600 1,440 Climbing Los Angeles Center
04:09PM 34.4914 -118.2881 32° Northeast 354 407 13,300 1,824 Climbing Los Angeles Center
04:10PM 34.5664 -118.1706 52° Northeast 368 423 15,400 1,742 Climbing Los Angeles Center
04:11PM 34.6186 -118.0750 56° Northeast 375 432 16,900 1,548 Climbing Los Angeles Center
04:12PM 34.6444 -117.9492 76° East 382 440 18,600 1,839 Climbing Los Angeles Center
04:13PM 34.6611 -117.7903 83° East 397 457 20,700 1,839 Climbing Los Angeles Center
04:14PM 34.6903 -117.6586 75° East 409 471 22,400 1,645 Climbing Los Angeles Center
04:15PM 34.7239 -117.5247 73° East 418 481 24,100 1,258 Climbing Los Angeles Center
04:16PM 34.7586 -117.3861 73° East 432 497 25,000 435 Climbing Los Angeles Center
04:17PM 34.7967 -117.2333 73° East 470 541 25,000  Level Los Angeles Center
04:18PM 34.8456 -117.0392 73° East 504 580 25,000  Level Los Angeles Center
04:19PM 34.8850 -116.8783 73° East 501 577 25,000 -49 Level Los Angeles Center
04:20PM 34.9267 -116.7169 72° East 502 578 24,900 -484 Descending Los Angeles Center
04:21PM 34.9836 -116.5647 65° Northeast 493 567 24,000 -435 Descending Los Angeles Center
04:23PM 35.0689 -116.4369 51° Northeast 489 563 24,000 -532 Level Los Angeles Center
04:24PM 35.1831 -116.2994 45° Northeast 484 557 22,900 -1,548 Descending Los Angeles Center
04:25PM 35.2750 -116.1844 46° Northeast 477 549 20,800 -1,984 Descending Los Angeles Center
04:26PM 35.3667 -116.0667 46° Northeast 479 551 18,800 -1,984 Descending Los Angeles Center
04:27PM 35.4561 -115.9567 45° Northeast 463 533 16,700 -1,984 Descending Los Angeles Center
04:28PM 35.5464 -115.8406 46° Northeast 453 521 14,700 -2,063 Descending Los Angeles Center
04:28PM 35.6025 -115.7750 44° Northeast 444 511 13,400 -1,229 Descending Los Angeles Center
04:29PM 35.6656 -115.6969 45° Northeast 381 438 13,000 -267 Descending Los Angeles Center
04:30PM 35.6956 -115.6525 50° Northeast 351 404 13,000  Level Los Angeles Center
04:31PM 35.7794 -115.5822 34° Northeast 318 366 13,000  Level Los Angeles Center
04:32PM 35.8553 -115.5686 North 271 312 13,000  Level Los Angeles Center
04:33PM 35.9322 -115.5650 North 258 297 13,000  Level Los Angeles Center
04:34PM 36.0050 -115.5614 North 260 299 13,000 -194 Level Los Angeles Center
04:35PM 36.0489 -115.5100 43° Northeast 270 311 12,600 -726 Descending Los Angeles Center
04:36PM 36.0358 -115.4167 100° East 276 318 11,500 -1,113 Descending Los Angeles Center
04:37PM 36.0247 -115.3075 97° East 273 314 10,300 -1,065 Descending Los Angeles Center
04:38PM 36.0203 -115.2189 94° East 265 305 9,300 -878 Descending Los Angeles Center
04:39PM 36.0142 -115.1367 95° East 251 289 8,500 -585 Descending Los Angeles Center
04:40PM 36.0100 -115.0719 95° East 208 239 8,100 -242 Descending Los Angeles Center
04:41PM 36.0325 -115.0197 62° Northeast 221 254 8,000 -532 Descending Los Angeles Center
04:42PM 36.0811 -114.9942 23° Northeast 197 227 7,000 -1,355 Descending Los Angeles Center
04:43PM 36.1311 -114.9800 13° North 177 204 5,200 -1,200 Descending Los Angeles Center
04:44PM 36.1322 -115.0486 271° West 155 178 4,300 -726 Descending Los Angeles Center
04:45PM 36.1311 -115.0878 268° West 161 185 3,700 -796 Descending Los Angeles Center
04:46PM 36.1258 -115.1400 263° West 157 181 2,800 -774 Descending Los Angeles Center
04:47PM 36.1214 -115.0944 97° East 200 230 2,100 -677 Descending Los Angeles Center
04:49PM 36.0801 -115.1523 270° West  Level Estimated